CheckWX is a tool to help pilots better visualize weather data.  It is not intended as a substitute for an official pre-flight weather briefing.

08:11:52 UTC

KAJZ METAR
Blake Field Airport
Delta, Colorado, USA
Current

17 mins ago

KAJZ 230755Z AUTO 16003KT 10SM CLR 13/00 A3008 RMK AO2 T01301005
Observed
Apr-23 @ 07:55 UTC
Wind
  • 160° at 3 KTS
Visibility
10 SM
Flight Rules
VFR
Cloud Levels
  • Clear skies
Temperature
13°C / 55°F
Dewpoint
-1°C / 30°F
Humidity
38%
Altimeter
30.08" Hg
Pressure
1018.62 hPa
Previous

37 mins ago

KAJZ 230735Z AUTO 12003KT 10SM CLR 12/00 A3009 RMK AO2 T01231004
Observed
Apr-23 @ 07:35 UTC
Wind
  • 120° at 3 KTS
Visibility
10 SM
Flight Rules
VFR
Cloud Levels
  • Clear skies
Temperature
12°C / 54°F
Dewpoint
-0°C / 32°F
Humidity
44%
Altimeter
30.09" Hg
Pressure
1018.92 hPa
Previous

57 mins ago

KAJZ 230715Z AUTO 00000KT 10SM CLR 11/00 A3009 RMK AO2 T01101001
Observed
Apr-23 @ 07:15 UTC
Visibility
10 SM
Flight Rules
VFR
Cloud Levels
  • Clear skies
Temperature
11°C / 52°F
Dewpoint
-0°C / 32°F
Humidity
47%
Altimeter
30.09" Hg
Pressure
1018.92 hPa